createdAt,value
2019-01-11T00:00:24.198Z,100416.17
2019-01-11T00:01:10.201Z,100422.45
2019-01-11T00:01:49.285Z,100422.66
2019-01-11T00:02:26.271Z,100419.09
2019-01-11T00:03:02.810Z,100419.30
2019-01-11T00:03:39.643Z,100422.84
2019-01-11T00:04:16.345Z,100416.33
2019-01-11T00:04:53.055Z,100420.76
2019-01-11T00:05:32.816Z,100420.76
2019-01-11T00:06:09.495Z,100420.76
2019-01-11T00:06:46.451Z,100413.87
2019-01-11T00:07:23.196Z,100417.93
2019-01-11T00:07:59.621Z,100420.07
2019-01-11T00:08:35.950Z,100414.91
2019-01-11T00:09:13.074Z,100415.22
2019-01-11T00:09:49.715Z,100411.78
2019-01-11T00:10:27.054Z,100411.78
2019-01-11T00:11:03.872Z,100414.28
2019-01-11T00:11:40.930Z,100421.02
2019-01-11T00:12:17.638Z,100418.50
2019-01-11T00:12:54.753Z,100418.50
2019-01-11T00:13:31.506Z,100421.45
2019-01-11T00:14:08.172Z,100419.02
2019-01-11T00:14:44.736Z,100413.78
2019-01-11T00:15:21.847Z,100408.91
2019-01-11T00:15:58.572Z,100409.97
2019-01-11T00:16:35.607Z,100414.86
2019-01-11T00:17:12.339Z,100412.66
2019-01-11T00:17:49.420Z,100416.98
2019-01-11T00:18:27.474Z,100409.13
2019-01-11T00:19:07.210Z,100415.31
2019-01-11T00:19:42.567Z,100409.61
2019-01-11T00:20:19.431Z,100419.91
2019-01-11T00:20:56.556Z,100414.72
2019-01-11T00:21:33.292Z,100419.84
2019-01-11T00:22:09.338Z,100419.84
2019-01-11T00:22:46.164Z,100426.62
2019-01-11T00:23:22.916Z,100423.66
2019-01-11T00:23:59.872Z,100414.92
2019-01-11T00:24:36.094Z,100426.08
2019-01-11T00:25:13.209Z,100414.66
2019-01-11T00:25:50.230Z,100414.66
2019-01-11T00:26:26.592Z,100419.05
2019-01-11T00:27:03.305Z,100419.05
2019-01-11T00:27:39.898Z,100427.37
2019-01-11T00:28:16.302Z,100416.14
2019-01-11T00:28:53.453Z,100415.87
2019-01-11T00:29:30.320Z,100425.42
2019-01-11T00:30:08.596Z,100418.38
2019-01-11T00:30:45.518Z,100413.23
2019-01-11T00:31:22.096Z,100403.66
2019-01-11T00:31:58.617Z,100415.55
2019-01-11T00:32:34.931Z,100405.73
2019-01-11T00:33:11.075Z,100414.24
2019-01-11T00:33:47.963Z,100405.53
2019-01-11T00:34:24.614Z,100405.53
2019-01-11T00:35:01.007Z,100404.94
2019-01-11T00:35:37.368Z,100402.48
2019-01-11T00:36:13.929Z,100399.77
2019-01-11T00:36:50.956Z,100408.52
2019-01-11T00:37:27.974Z,100403.16
2019-01-11T00:38:04.752Z,100396.38
2019-01-11T00:38:41.365Z,100402.97
2019-01-11T00:39:18.264Z,100402.97
2019-01-11T00:39:54.667Z,100396.43
2019-01-11T00:40:31.955Z,100397.48
2019-01-11T00:41:09.248Z,100389.52
2019-01-11T00:41:45.669Z,100386.55
2019-01-11T00:42:21.880Z,100395.39
2019-01-11T00:42:58.572Z,100393.84
2019-01-11T00:43:34.492Z,100393.84
2019-01-11T00:44:10.946Z,100394.34
2019-01-11T00:44:47.148Z,100390.55
2019-01-11T00:45:24.217Z,100394.27
2019-01-11T00:46:01.213Z,100394.09
2019-01-11T00:46:37.681Z,100394.09
2019-01-11T00:47:14.438Z,100393.67
2019-01-11T00:47:51.022Z,100389.63
2019-01-11T00:48:27.236Z,100389.63
2019-01-11T00:49:03.919Z,100396.66
2019-01-11T00:49:40.596Z,100387.77
2019-01-11T00:50:17.748Z,100388.80
2019-01-11T00:50:55.790Z,100395.63
2019-01-11T00:51:33.124Z,100384.41
2019-01-11T00:52:09.536Z,100388.55
2019-01-11T00:52:45.951Z,100382.99
2019-01-11T00:53:22.431Z,100382.99
2019-01-11T00:53:59.709Z,100387.06
2019-01-11T00:54:36.411Z,100388.75
2019-01-11T00:55:12.983Z,100388.75
2019-01-11T00:55:49.705Z,100372.92
2019-01-11T00:56:26.467Z,100377.57
2019-01-11T00:57:03.323Z,100380.28
2019-01-11T00:57:40.190Z,100380.28
2019-01-11T00:58:16.698Z,100376.47
2019-01-11T00:58:53.214Z,100374.52
2019-01-11T00:59:30.179Z,100382.94
2019-01-11T01:00:08.896Z,100380.98
2019-01-11T01:00:46.294Z,100377.77
2019-01-11T01:01:23.185Z,100380.14
2019-01-11T01:02:02.446Z,100377.43
2019-01-11T01:02:39.105Z,100378.28
2019-01-11T01:03:15.550Z,100381.70
2019-01-11T01:03:52.581Z,100372.92
2019-01-11T01:04:29.553Z,100374.12
2019-01-11T01:05:06.328Z,100372.83
2019-01-11T01:05:43.271Z,100377.84
2019-01-11T01:06:20.491Z,100376.98
2019-01-11T01:06:57.297Z,100369.63
2019-01-11T01:07:34.329Z,100369.63
2019-01-11T01:08:11.581Z,100373.57
2019-01-11T01:08:48.651Z,100376.72
2019-01-11T01:09:25.090Z,100376.72
2019-01-11T01:10:01.790Z,100392.36
2019-01-11T01:10:38.859Z,100392.36
2019-01-11T01:11:15.797Z,100392.40
2019-01-11T01:11:52.452Z,100392.40
2019-01-11T01:12:29.418Z,100383.36
2019-01-11T01:13:06.706Z,100392.39
2019-01-11T01:13:43.177Z,100388.53
2019-01-11T01:14:20.243Z,100401.45
2019-01-11T01:14:56.665Z,100401.45
2019-01-11T01:15:33.119Z,100401.05
2019-01-11T01:16:09.982Z,100399.59
2019-01-11T01:16:46.955Z,100403.45
2019-01-11T01:17:23.826Z,100400.11
2019-01-11T01:18:00.262Z,100406.55
2019-01-11T01:18:36.949Z,100406.55
2019-01-11T01:19:19.868Z,100404.11
2019-01-11T01:19:52.384Z,100406.75
2019-01-11T01:20:29.568Z,100407.58
2019-01-11T01:21:06.082Z,100405.72
2019-01-11T01:21:42.933Z,100405.72
2019-01-11T01:22:19.828Z,100404.69
2019-01-11T01:22:57.026Z,100412.95
2019-01-11T01:23:33.615Z,100412.95
2019-01-11T01:24:09.987Z,100416.77
2019-01-11T01:24:46.471Z,100414.16
2019-01-11T01:25:23.594Z,100417.46
2019-01-11T01:26:00.170Z,100417.46
2019-01-11T01:26:36.871Z,100409.16
2019-01-11T01:27:13.532Z,100415.18
2019-01-11T01:27:50.574Z,100417.75
2019-01-11T01:28:27.502Z,100411.73
2019-01-11T01:29:04.676Z,100411.73
2019-01-11T01:29:41.339Z,100421.55
2019-01-11T01:30:19.269Z,100429.44
2019-01-11T01:30:55.668Z,100421.04
2019-01-11T01:31:32.921Z,100426.09
2019-01-11T01:32:09.197Z,100426.09
2019-01-11T01:32:45.640Z,100424.66
2019-01-11T01:33:22.267Z,100425.70
2019-01-11T01:33:59.346Z,100425.70
2019-01-11T01:34:35.606Z,100437.61
2019-01-11T01:35:12.083Z,100437.61
2019-01-11T01:35:49.225Z,100433.09
2019-01-11T01:36:26.417Z,100447.70
2019-01-11T01:37:03.307Z,100440.68
2019-01-11T01:37:39.692Z,100455.58
2019-01-11T01:38:16.392Z,100432.62
2019-01-11T01:38:53.052Z,100431.72
2019-01-11T01:39:29.928Z,100431.72
2019-01-11T01:40:07.789Z,100434.39
2019-01-11T01:40:44.508Z,100434.39
2019-01-11T01:41:21.337Z,100432.15
2019-01-11T01:41:58.796Z,100432.12
2019-01-11T01:42:35.404Z,100435.50
2019-01-11T01:43:11.945Z,100429.44
2019-01-11T01:43:49.274Z,100434.69
2019-01-11T01:44:26.185Z,100434.69
2019-01-11T01:45:03.615Z,100429.75
2019-01-11T01:45:39.901Z,100438.20
2019-01-11T01:46:16.597Z,100438.20
2019-01-11T01:46:53.285Z,100435.75
2019-01-11T01:47:30.434Z,100428.89
2019-01-11T01:48:07.169Z,100441.48
2019-01-11T01:48:43.370Z,100441.48
2019-01-11T01:49:26.371Z,100437.49
2019-01-11T01:49:58.606Z,100433.62
2019-01-11T01:50:35.143Z,100434.13
2019-01-11T01:51:12.183Z,100429.19
2019-01-11T01:51:49.191Z,100432.27
2019-01-11T01:52:25.942Z,100430.57
2019-01-11T01:53:02.503Z,100433.80
2019-01-11T01:53:39.552Z,100433.13
2019-01-11T01:54:16.456Z,100428.20
2019-01-11T01:54:52.985Z,100426.91
2019-01-11T01:55:29.885Z,100430.81
2019-01-11T01:56:07.132Z,100431.22
2019-01-11T01:56:44.336Z,100432.61
2019-01-11T01:57:21.550Z,100434.08
2019-01-11T01:57:58.791Z,100429.00
2019-01-11T01:58:35.675Z,100429.00
2019-01-11T01:59:11.965Z,100429.09
2019-01-11T01:59:48.587Z,100429.09
2019-01-11T02:00:25.450Z,100427.80
2019-01-11T02:01:01.869Z,100436.78
2019-01-11T02:01:38.520Z,100436.78
2019-01-11T02:02:15.548Z,100439.31
2019-01-11T02:02:52.656Z,100432.17
2019-01-11T02:03:29.236Z,100430.33
2019-01-11T02:04:06.131Z,100431.19
2019-01-11T02:04:42.920Z,100431.19
2019-01-11T02:05:19.439Z,100435.16
2019-01-11T02:05:55.851Z,100435.16
2019-01-11T02:06:32.402Z,100435.38
2019-01-11T02:07:08.602Z,100435.38
2019-01-11T02:07:45.943Z,100436.73
2019-01-11T02:08:23.179Z,100432.08
2019-01-11T02:09:00.181Z,100433.77
2019-01-11T02:09:37.254Z,100433.77
2019-01-11T02:10:15.331Z,100418.08
2019-01-11T02:10:52.635Z,100421.87
2019-01-11T02:11:29.491Z,100414.07
2019-01-11T02:12:06.614Z,100414.07
2019-01-11T02:12:43.483Z,100406.73
2019-01-11T02:13:20.431Z,100406.73
2019-01-11T02:13:57.747Z,100398.70
2019-01-11T02:14:34.801Z,100398.70
2019-01-11T02:15:13.009Z,100402.81
2019-01-11T02:15:50.242Z,100404.73
2019-01-11T02:16:26.906Z,100404.56
2019-01-11T02:17:04.081Z,100404.84
2019-01-11T02:17:40.910Z,100408.72
2019-01-11T02:18:19.739Z,100411.03
2019-01-11T02:18:56.736Z,100404.17
2019-01-11T02:19:33.427Z,100404.17
2019-01-11T02:20:14.858Z,100403.44
2019-01-11T02:20:51.788Z,100403.44
2019-01-11T02:21:28.739Z,100403.53
2019-01-11T02:22:04.930Z,100396.52
2019-01-11T02:22:41.449Z,100402.19
2019-01-11T02:23:17.713Z,100403.75
2019-01-11T02:23:53.861Z,100402.24
2019-01-11T02:24:31.013Z,100400.19
2019-01-11T02:25:07.592Z,100400.19
2019-01-11T02:25:46.307Z,100396.24
2019-01-11T02:26:22.176Z,100396.24
2019-01-11T02:26:58.633Z,100393.57
2019-01-11T02:27:35.514Z,100393.57
2019-01-11T02:28:12.427Z,100390.50
2019-01-11T02:28:49.569Z,100388.31
2019-01-11T02:29:26.688Z,100389.66
2019-01-11T02:30:03.572Z,100387.23
2019-01-11T02:30:40.176Z,100387.23
2019-01-11T02:31:17.039Z,100378.34
2019-01-11T02:31:53.326Z,100391.57
2019-01-11T02:32:30.441Z,100400.09
2019-01-11T02:33:07.025Z,100400.09
2019-01-11T02:33:43.621Z,100394.59
2019-01-11T02:34:21.141Z,100405.41
2019-01-11T02:34:57.704Z,100405.45
2019-01-11T02:35:34.735Z,100401.35
2019-01-11T02:36:10.953Z,100403.53
2019-01-11T02:36:47.274Z,100403.47
2019-01-11T02:37:23.655Z,100414.39
2019-01-11T02:38:00.350Z,100414.39
2019-01-11T02:38:36.517Z,100405.20
2019-01-11T02:39:13.318Z,100405.20
2019-01-11T02:39:49.921Z,100410.05
2019-01-11T02:40:26.418Z,100408.89
2019-01-11T02:41:03.469Z,100415.93
2019-01-11T02:41:39.657Z,100413.53
2019-01-11T02:42:16.687Z,100413.53
2019-01-11T02:42:52.935Z,100411.31
2019-01-11T02:43:29.612Z,100413.34
2019-01-11T02:44:05.859Z,100419.62
2019-01-11T02:44:42.705Z,100419.62
2019-01-11T02:45:22.256Z,100423.59
2019-01-11T02:45:59.354Z,100423.59
2019-01-11T02:46:35.626Z,100423.59
2019-01-11T02:47:11.952Z,100422.79
2019-01-11T02:47:48.592Z,100423.65
2019-01-11T02:48:25.896Z,100423.65
2019-01-11T02:49:03.177Z,100418.55
2019-01-11T02:49:40.447Z,100419.59
2019-01-11T02:50:17.570Z,100412.83
2019-01-11T02:50:54.430Z,100412.83
2019-01-11T02:51:31.618Z,100418.23
2019-01-11T02:52:08.249Z,100417.38
2019-01-11T02:52:45.613Z,100417.38
2019-01-11T02:53:22.568Z,100407.91
2019-01-11T02:53:59.275Z,100418.70
2019-01-11T02:54:35.538Z,100411.23
2019-01-11T02:55:11.754Z,100414.30
2019-01-11T02:55:48.129Z,100414.30
2019-01-11T02:56:24.910Z,100411.62
2019-01-11T02:57:01.908Z,100411.62
2019-01-11T02:57:38.497Z,100411.75
2019-01-11T02:58:15.069Z,100413.16
2019-01-11T02:58:51.885Z,100406.48
2019-01-11T02:59:28.404Z,100418.58
2019-01-11T03:00:05.187Z,100410.05
2019-01-11T03:00:42.068Z,100410.05
2019-01-11T03:01:19.156Z,100422.95
2019-01-11T03:01:55.747Z,100422.95
2019-01-11T03:02:32.439Z,100421.52
2019-01-11T03:03:09.600Z,100408.45
2019-01-11T03:03:46.757Z,100408.45
2019-01-11T03:04:23.665Z,100411.71
2019-01-11T03:04:59.927Z,100416.91
2019-01-11T03:05:36.393Z,100420.11
2019-01-11T03:06:12.809Z,100420.11
2019-01-11T03:06:49.510Z,100419.86
2019-01-11T03:07:26.541Z,100419.86
2019-01-11T03:08:03.308Z,100412.58
2019-01-11T03:08:40.193Z,100418.58
2019-01-11T03:09:17.153Z,100419.03
2019-01-11T03:09:53.971Z,100414.45
2019-01-11T03:10:30.812Z,100424.75
2019-01-11T03:11:08.153Z,100424.75
2019-01-11T03:11:44.771Z,100415.87
2019-01-11T03:12:21.648Z,100414.80
2019-01-11T03:12:58.096Z,100414.80
2019-01-11T03:13:34.814Z,100417.50
2019-01-11T03:14:11.572Z,100417.50
2019-01-11T03:14:48.279Z,100422.17
2019-01-11T03:15:25.196Z,100418.52
2019-01-11T03:16:01.985Z,100413.06
2019-01-11T03:16:39.124Z,100420.02
2019-01-11T03:17:16.174Z,100424.66
2019-01-11T03:17:53.043Z,100424.66
2019-01-11T03:18:29.859Z,100416.72
2019-01-11T03:19:06.690Z,100417.52
2019-01-11T03:19:47.731Z,100425.49
2019-01-11T03:20:21.730Z,100422.48
2019-01-11T03:20:58.707Z,100417.03
2019-01-11T03:21:36.824Z,100414.33
2019-01-11T03:22:13.127Z,100420.08
2019-01-11T03:22:49.839Z,100416.81
2019-01-11T03:23:26.422Z,100424.69
2019-01-11T03:24:02.876Z,100424.69
2019-01-11T03:24:39.439Z,100424.27
2019-01-11T03:25:16.486Z,100424.27
2019-01-11T03:25:53.420Z,100424.27
2019-01-11T03:26:30.171Z,100427.84
2019-01-11T03:27:07.244Z,100423.13
2019-01-11T03:27:44.096Z,100422.30
2019-01-11T03:28:21.379Z,100420.55
2019-01-11T03:28:57.545Z,100421.69
2019-01-11T03:29:34.750Z,100421.44
2019-01-11T03:30:16.719Z,100421.44
2019-01-11T03:30:53.436Z,100420.91
2019-01-11T03:31:35.826Z,100420.91
2019-01-11T03:32:12.899Z,100416.83
2019-01-11T03:32:49.661Z,100412.64
2019-01-11T03:33:26.720Z,100418.42
2019-01-11T03:34:03.630Z,100411.65
2019-01-11T03:34:54.607Z,100417.19
2019-01-11T03:35:31.744Z,100417.19
2019-01-11T03:36:08.350Z,100418.05
2019-01-11T03:36:44.761Z,100414.48
2019-01-11T03:37:21.358Z,100414.48
2019-01-11T03:37:58.217Z,100413.47
2019-01-11T03:38:35.292Z,100411.28
2019-01-11T03:39:12.655Z,100411.28
2019-01-11T03:39:49.296Z,100408.58
2019-01-11T03:40:27.316Z,100419.72
2019-01-11T03:41:04.476Z,100419.44
2019-01-11T03:41:55.349Z,100415.41
2019-01-11T03:42:31.652Z,100415.41
2019-01-11T03:43:08.464Z,100413.31
2019-01-11T03:43:45.245Z,100413.31
2019-01-11T03:44:22.563Z,100408.48
2019-01-11T03:44:59.237Z,100417.38
2019-01-11T03:45:35.956Z,100414.36
2019-01-11T03:46:12.640Z,100414.42
2019-01-11T03:46:49.742Z,100414.42
2019-01-11T03:47:26.204Z,100409.34
2019-01-11T03:48:03.002Z,100409.34
2019-01-11T03:48:39.832Z,100410.52
2019-01-11T03:49:16.753Z,100410.52
2019-01-11T03:49:55.000Z,100410.83
2019-01-11T03:50:31.319Z,100414.39
2019-01-11T03:51:07.948Z,100414.39
2019-01-11T03:51:44.486Z,100404.39
2019-01-11T03:52:21.922Z,100404.39
2019-01-11T03:52:58.785Z,100411.25
2019-01-11T03:53:35.712Z,100406.61
2019-01-11T03:54:12.316Z,100409.59
2019-01-11T03:54:49.286Z,100410.02
2019-01-11T03:55:25.484Z,100410.02
2019-01-11T03:56:04.257Z,100423.96
2019-01-11T03:56:41.429Z,100423.96
2019-01-11T03:57:18.164Z,100424.45
2019-01-11T03:57:54.449Z,100424.45
2019-01-11T03:58:31.172Z,100415.66
2019-01-11T03:59:08.521Z,100418.73
2019-01-11T03:59:45.152Z,100415.83
2019-01-11T04:00:24.509Z,100413.98
2019-01-11T04:01:01.860Z,100412.47
2019-01-11T04:01:38.494Z,100412.47
2019-01-11T04:02:14.678Z,100418.59
2019-01-11T04:02:51.007Z,100410.14
2019-01-11T04:03:27.688Z,100415.52
2019-01-11T04:04:04.480Z,100409.07
2019-01-11T04:04:41.492Z,100415.58
2019-01-11T04:05:18.144Z,100415.67
2019-01-11T04:05:54.538Z,100413.41
2019-01-11T04:06:31.216Z,100413.41
2019-01-11T04:07:07.351Z,100422.73
2019-01-11T04:07:43.439Z,100414.49
2019-01-11T04:08:20.285Z,100414.49
2019-01-11T04:08:56.735Z,100420.16
2019-01-11T04:09:34.081Z,100420.16
2019-01-11T04:10:15.425Z,100418.39
2019-01-11T04:10:52.215Z,100415.38
2019-01-11T04:11:29.714Z,100409.10
2019-01-11T04:12:06.270Z,100414.00
2019-01-11T04:12:42.928Z,100408.38
2019-01-11T04:13:19.147Z,100408.38
2019-01-11T04:13:56.280Z,100407.75
2019-01-11T04:14:32.924Z,100413.97
2019-01-11T04:15:10.748Z,100413.97
2019-01-11T04:15:47.136Z,100412.30
2019-01-11T04:16:23.163Z,100412.30
2019-01-11T04:16:59.490Z,100407.80
2019-01-11T04:17:36.499Z,100403.99
2019-01-11T04:18:30.185Z,100408.73
2019-01-11T04:19:11.868Z,100398.55
2019-01-11T04:19:48.820Z,100398.55
2019-01-11T04:20:25.423Z,100405.81
2019-01-11T04:21:02.037Z,100411.47
2019-01-11T04:21:38.820Z,100413.44
2019-01-11T04:22:29.587Z,100413.44
2019-01-11T04:23:06.091Z,100407.50
2019-01-11T04:23:42.793Z,100407.78
2019-01-11T04:24:20.987Z,100404.73
2019-01-11T04:25:05.950Z,100410.24
2019-01-11T04:25:45.461Z,100405.81
2019-01-11T04:26:21.947Z,100400.67
2019-01-11T04:26:59.047Z,100392.13
2019-01-11T04:27:35.747Z,100404.80
2019-01-11T04:28:12.835Z,100407.59
2019-01-11T04:28:49.358Z,100409.75
2019-01-11T04:29:26.796Z,100409.75
2019-01-11T04:30:03.405Z,100399.53
2019-01-11T04:30:39.770Z,100401.05
2019-01-11T04:31:16.430Z,100398.24
2019-01-11T04:31:53.353Z,100403.75
2019-01-11T04:32:29.913Z,100403.75
2019-01-11T04:33:06.939Z,100409.63
2019-01-11T04:33:44.124Z,100409.63
2019-01-11T04:34:20.557Z,100409.44
2019-01-11T04:34:57.387Z,100404.17
2019-01-11T04:35:34.400Z,100404.17
2019-01-11T04:36:11.590Z,100411.31
2019-01-11T04:36:47.980Z,100413.22
2019-01-11T04:37:24.592Z,100410.45
2019-01-11T04:38:01.345Z,100408.86
2019-01-11T04:38:37.504Z,100409.66
2019-01-11T04:39:14.373Z,100406.79
2019-01-11T04:39:51.516Z,100406.79
2019-01-11T04:40:34.167Z,100407.47
2019-01-11T04:41:06.986Z,100407.47
2019-01-11T04:41:43.791Z,100408.12
2019-01-11T04:42:20.791Z,100406.98
2019-01-11T04:42:57.711Z,100405.88
2019-01-11T04:43:34.346Z,100402.00
2019-01-11T04:44:10.838Z,100408.48
2019-01-11T04:44:47.457Z,100396.73
2019-01-11T04:45:24.121Z,100409.89
2019-01-11T04:46:00.743Z,100409.89
2019-01-11T04:46:37.651Z,100404.07
2019-01-11T04:47:15.512Z,100404.07
2019-01-11T04:47:52.660Z,100407.61
2019-01-11T04:48:29.632Z,100404.32
2019-01-11T04:49:06.736Z,100404.32
2019-01-11T04:49:44.149Z,100403.05
2019-01-11T04:50:21.479Z,100403.05
2019-01-11T04:50:58.435Z,100403.69
2019-01-11T04:51:35.604Z,100407.72
2019-01-11T04:52:11.850Z,100402.30
2019-01-11T04:52:48.353Z,100403.82
2019-01-11T04:53:25.064Z,100403.82
2019-01-11T04:54:01.780Z,100404.16
2019-01-11T04:54:38.624Z,100402.66
2019-01-11T04:55:15.019Z,100398.66
2019-01-11T04:55:52.030Z,100393.19
2019-01-11T04:56:28.930Z,100394.30
2019-01-11T04:57:05.406Z,100394.30
2019-01-11T04:57:41.483Z,100395.66
2019-01-11T04:58:18.813Z,100395.66
2019-01-11T04:58:56.111Z,100385.08
2019-01-11T04:59:33.120Z,100385.08
2019-01-11T05:00:13.265Z,100391.92
2019-01-11T05:00:50.074Z,100383.69
2019-01-11T05:01:27.018Z,100383.97
2019-01-11T05:02:04.296Z,100388.36
2019-01-11T05:02:41.181Z,100389.53
2019-01-11T05:03:18.095Z,100380.77
2019-01-11T05:03:54.287Z,100380.77
2019-01-11T05:04:30.896Z,100380.67
2019-01-11T05:05:08.265Z,100377.22
2019-01-11T05:05:44.730Z,100377.22
2019-01-11T05:06:21.444Z,100382.86
2019-01-11T05:06:58.378Z,100376.28
2019-01-11T05:07:34.904Z,100376.28
2019-01-11T05:08:12.072Z,100372.06
2019-01-11T05:08:49.016Z,100378.03
2019-01-11T05:09:26.022Z,100376.31
2019-01-11T05:10:02.264Z,100373.77
2019-01-11T05:10:39.166Z,100377.73
2019-01-11T05:11:15.998Z,100367.80
2019-01-11T05:11:52.288Z,100368.10
2019-01-11T05:12:28.775Z,100364.66
2019-01-11T05:13:24.385Z,100360.93
2019-01-11T05:14:00.859Z,100364.27
2019-01-11T05:14:37.828Z,100364.27
2019-01-11T05:15:14.479Z,100366.03
2019-01-11T05:15:51.258Z,100363.73
2019-01-11T05:16:28.052Z,100369.86
2019-01-11T05:17:04.371Z,100369.86
2019-01-11T05:17:41.443Z,100360.42
2019-01-11T05:18:17.707Z,100360.42
2019-01-11T05:18:54.835Z,100366.41
2019-01-11T05:19:31.378Z,100361.03
2019-01-11T05:20:16.571Z,100361.03
2019-01-11T05:20:48.942Z,100366.75
2019-01-11T05:21:26.249Z,100363.38
2019-01-11T05:22:02.967Z,100363.38
2019-01-11T05:22:39.717Z,100358.14
2019-01-11T05:23:16.144Z,100358.14
2019-01-11T05:23:52.963Z,100363.30
2019-01-11T05:24:30.098Z,100369.05
2019-01-11T05:25:07.849Z,100369.05
2019-01-11T05:25:44.176Z,100364.09
2019-01-11T05:26:21.335Z,100360.23
2019-01-11T05:26:57.931Z,100364.90
2019-01-11T05:27:35.046Z,100367.52
2019-01-11T05:28:11.826Z,100357.68
2019-01-11T05:28:48.546Z,100358.23
2019-01-11T05:29:25.578Z,100348.61
2019-01-11T05:30:01.777Z,100353.68
2019-01-11T05:30:39.009Z,100353.68
2019-01-11T05:31:16.025Z,100349.31
2019-01-11T05:31:52.517Z,100349.31
2019-01-11T05:32:28.997Z,100344.58
2019-01-11T05:33:06.039Z,100349.01
2019-01-11T05:33:42.721Z,100348.21
2019-01-11T05:34:19.664Z,100348.21
2019-01-11T05:34:56.132Z,100346.80
2019-01-11T05:35:32.551Z,100345.75
2019-01-11T05:36:09.408Z,100346.61
2019-01-11T05:36:46.562Z,100346.09
2019-01-11T05:37:23.604Z,100348.03
2019-01-11T05:37:59.783Z,100348.03
2019-01-11T05:38:36.683Z,100335.61
2019-01-11T05:39:12.943Z,100346.37
2019-01-11T05:39:49.561Z,100348.39
2019-01-11T05:40:25.935Z,100348.39
2019-01-11T05:41:03.197Z,100350.33
2019-01-11T05:41:40.019Z,100352.30
2019-01-11T05:42:16.444Z,100347.99
2019-01-11T05:42:53.127Z,100347.99
2019-01-11T05:43:30.147Z,100349.59
2019-01-11T05:44:06.806Z,100346.05
2019-01-11T05:44:43.380Z,100344.95
2019-01-11T05:45:19.659Z,100346.46
2019-01-11T05:45:56.479Z,100344.06
2019-01-11T05:46:33.728Z,100344.06
2019-01-11T05:47:10.150Z,100347.62
2019-01-11T05:47:47.339Z,100332.93
2019-01-11T05:48:24.331Z,100332.93
2019-01-11T05:49:00.728Z,100335.72
2019-01-11T05:49:37.235Z,100332.91
2019-01-11T05:50:16.331Z,100332.91
2019-01-11T05:50:53.068Z,100332.97
2019-01-11T05:51:30.011Z,100328.27
2019-01-11T05:52:06.865Z,100331.23
2019-01-11T05:52:43.889Z,100329.72
2019-01-11T05:53:20.653Z,100331.56
2019-01-11T05:53:57.774Z,100329.91
2019-01-11T05:54:34.133Z,100301.29
2019-01-11T05:55:12.408Z,100326.42
2019-01-11T05:55:50.579Z,100323.55
2019-01-11T05:56:27.727Z,100323.55
2019-01-11T05:57:04.787Z,100322.41
2019-01-11T05:57:55.392Z,100306.36
2019-01-11T05:58:33.978Z,100306.36
2019-01-11T05:59:12.038Z,100310.80
2019-01-11T05:59:48.711Z,100310.80
2019-01-11T06:00:25.737Z,100317.41
2019-01-11T06:01:03.108Z,100317.41
2019-01-11T06:01:40.124Z,100305.73
2019-01-11T06:02:16.998Z,100307.39
2019-01-11T06:02:53.793Z,100307.39
2019-01-11T06:03:30.585Z,100315.34
2019-01-11T06:04:24.405Z,100309.94
2019-01-11T06:05:08.142Z,100309.36
2019-01-11T06:05:44.933Z,100316.86
2019-01-11T06:06:22.371Z,100310.89
2019-01-11T06:07:16.437Z,100325.27
2019-01-11T06:07:56.380Z,100311.35
2019-01-11T06:08:34.006Z,100313.71
2019-01-11T06:09:11.111Z,100319.88
2019-01-11T06:09:48.273Z,100312.59
2019-01-11T06:10:24.851Z,100312.59
2019-01-11T06:11:01.989Z,100319.45
2019-01-11T06:11:38.832Z,100318.14
2019-01-11T06:12:15.179Z,100311.63
2019-01-11T06:12:51.427Z,100311.63
2019-01-11T06:13:28.504Z,100311.37
2019-01-11T06:14:05.249Z,100315.33
2019-01-11T06:14:41.926Z,100310.75
2019-01-11T06:15:18.831Z,100310.86
2019-01-11T06:15:56.085Z,100313.28
2019-01-11T06:16:32.682Z,100317.84
2019-01-11T06:17:09.718Z,100320.00
2019-01-11T06:17:46.256Z,100321.40
2019-01-11T06:18:23.463Z,100312.27
2019-01-11T06:19:00.279Z,100320.05
2019-01-11T06:19:36.880Z,100324.07
2019-01-11T06:20:16.767Z,100307.97
2019-01-11T06:20:53.525Z,100317.50
2019-01-11T06:21:29.924Z,100317.06
2019-01-11T06:22:07.067Z,100313.59
2019-01-11T06:22:44.021Z,100315.10
2019-01-11T06:23:21.252Z,100314.73
2019-01-11T06:23:58.071Z,100313.38
2019-01-11T06:24:34.390Z,100310.67
2019-01-11T06:25:11.040Z,100315.50
2019-01-11T06:25:49.209Z,100312.77
2019-01-11T06:26:26.023Z,100316.09
2019-01-11T06:27:02.146Z,100314.52
2019-01-11T06:27:39.109Z,100313.84
2019-01-11T06:28:16.369Z,100313.98
2019-01-11T06:28:55.197Z,100319.36
2019-01-11T06:29:31.505Z,100323.02
2019-01-11T06:30:10.018Z,100320.12
2019-01-11T06:30:47.008Z,100320.12
2019-01-11T06:31:23.448Z,100327.66
2019-01-11T06:32:00.263Z,100329.88
2019-01-11T06:32:37.036Z,100328.24
2019-01-11T06:33:13.609Z,100323.88
2019-01-11T06:33:50.905Z,100325.53
2019-01-11T06:34:27.177Z,100333.65
2019-01-11T06:35:03.371Z,100332.96
2019-01-11T06:35:40.280Z,100335.69
2019-01-11T06:36:16.865Z,100336.34
2019-01-11T06:36:53.587Z,100346.42
2019-01-11T06:37:30.979Z,100346.42
2019-01-11T06:38:07.519Z,100344.05
2019-01-11T06:38:44.318Z,100341.26
2019-01-11T06:39:21.316Z,100341.26
2019-01-11T06:39:57.619Z,100350.88
2019-01-11T06:40:34.489Z,100349.11
2019-01-11T06:41:11.457Z,100351.50
2019-01-11T06:41:53.921Z,100348.53
2019-01-11T06:42:30.375Z,100348.53
2019-01-11T06:43:07.178Z,100347.45
2019-01-11T06:43:45.459Z,100345.23
2019-01-11T06:44:22.144Z,100344.16
2019-01-11T06:45:00.004Z,100344.48
2019-01-11T06:45:36.848Z,100344.48
2019-01-11T06:46:13.606Z,100348.10
2019-01-11T06:46:50.607Z,100343.03
2019-01-11T06:47:27.764Z,100345.30
2019-01-11T06:48:05.995Z,100342.42
2019-01-11T06:48:43.655Z,100342.19
2019-01-11T06:49:20.126Z,100345.89
2019-01-11T06:49:57.138Z,100343.67
2019-01-11T06:50:36.552Z,100344.16
2019-01-11T06:51:12.853Z,100350.73
2019-01-11T06:51:49.537Z,100347.40
2019-01-11T06:52:26.675Z,100350.80
2019-01-11T06:53:03.338Z,100351.27
2019-01-11T06:53:40.153Z,100345.69
2019-01-11T06:54:17.312Z,100345.69
2019-01-11T06:54:53.777Z,100358.27
2019-01-11T06:55:30.580Z,100358.27
2019-01-11T06:56:07.323Z,100359.61
2019-01-11T06:56:43.901Z,100363.30
2019-01-11T06:57:21.027Z,100362.05
2019-01-11T06:57:57.583Z,100362.77
2019-01-11T06:58:34.911Z,100368.11
2019-01-11T06:59:12.235Z,100371.16
2019-01-11T06:59:49.161Z,100357.98
2019-01-11T07:00:25.767Z,100370.92
2019-01-11T07:01:02.632Z,100362.87
2019-01-11T07:01:39.699Z,100364.53
2019-01-11T07:02:16.254Z,100363.05
2019-01-11T07:02:53.491Z,100363.31
2019-01-11T07:03:30.295Z,100361.80
2019-01-11T07:04:06.641Z,100358.95